createdAt,value
2018-05-27T00:00:11.142Z,6.60
2018-05-27T00:01:11.133Z,6.20
2018-05-27T00:02:11.119Z,6.40
2018-05-27T00:03:11.113Z,6.40
2018-05-27T00:04:11.102Z,6.20
2018-05-27T00:05:11.085Z,6.30
2018-05-27T00:06:11.078Z,6.00
2018-05-27T00:07:11.073Z,6.50
2018-05-27T00:08:11.062Z,6.20
2018-05-27T00:09:11.053Z,6.20
2018-05-27T00:10:11.038Z,6.60
2018-05-27T00:11:11.034Z,6.20
2018-05-27T00:12:11.025Z,6.20
2018-05-27T00:13:11.015Z,6.40
2018-05-27T00:14:11.009Z,6.30
2018-05-27T00:15:10.995Z,6.50
2018-05-27T00:16:10.983Z,6.30
2018-05-27T00:17:10.973Z,6.10
2018-05-27T00:18:10.965Z,6.20
2018-05-27T00:19:10.955Z,6.80
2018-05-27T00:20:10.944Z,6.00
2018-05-27T00:21:10.934Z,6.10
2018-05-27T00:22:10.920Z,6.20
2018-05-27T00:23:10.915Z,6.10
2018-05-27T00:24:10.907Z,6.20
2018-05-27T00:26:10.894Z,6.80
2018-05-27T00:27:10.867Z,6.40
2018-05-27T00:28:10.867Z,6.20
2018-05-27T00:29:10.856Z,6.70
2018-05-27T00:30:10.846Z,6.20
2018-05-27T00:32:10.819Z,6.60
2018-05-27T00:33:10.809Z,6.30
2018-05-27T00:34:10.803Z,6.50
2018-05-27T00:35:10.789Z,6.70
2018-05-27T00:36:10.794Z,6.10
2018-05-27T00:37:10.773Z,6.30
2018-05-27T00:38:10.756Z,6.40
2018-05-27T00:39:10.749Z,6.90
2018-05-27T00:40:10.743Z,6.60
2018-05-27T00:41:10.727Z,6.30
2018-05-27T00:42:10.719Z,6.00
2018-05-27T00:43:10.709Z,6.70
2018-05-27T00:44:10.703Z,6.30
2018-05-27T00:45:10.686Z,6.30
2018-05-27T00:47:10.667Z,5.80
2018-05-27T00:48:10.713Z,5.80
2018-05-27T00:49:10.660Z,6.20
2018-05-27T00:50:10.643Z,6.10
2018-05-27T00:51:10.628Z,6.30
2018-05-27T00:52:10.612Z,6.00
2018-05-27T00:53:10.606Z,5.90
2018-05-27T00:54:10.597Z,6.10
2018-05-27T00:55:10.584Z,6.40
2018-05-27T00:56:10.583Z,6.20
2018-05-27T00:57:10.568Z,6.60
2018-05-27T00:58:10.555Z,6.50
2018-05-27T00:59:10.548Z,6.60
2018-05-27T01:00:10.539Z,6.60
2018-05-27T01:01:10.533Z,6.00
2018-05-27T01:02:10.513Z,6.70
2018-05-27T01:03:10.501Z,6.30
2018-05-27T01:04:10.494Z,6.60
2018-05-27T01:05:10.481Z,6.10
2018-05-27T01:06:10.472Z,6.70
2018-05-27T01:07:10.463Z,6.30
2018-05-27T01:08:10.452Z,6.20
2018-05-27T01:09:10.437Z,6.70
2018-05-27T01:10:10.423Z,6.50
2018-05-27T01:11:10.421Z,6.40
2018-05-27T01:12:10.411Z,6.40
2018-05-27T01:13:10.399Z,6.60
2018-05-27T01:14:10.392Z,6.00
2018-05-27T01:15:10.378Z,6.50
2018-05-27T01:16:10.366Z,6.30
2018-05-27T01:17:10.357Z,6.70
2018-05-27T01:18:10.350Z,6.10
2018-05-27T01:19:10.334Z,6.70
2018-05-27T01:20:10.331Z,6.60
2018-05-27T01:21:10.323Z,6.30
2018-05-27T01:22:10.310Z,6.80
2018-05-27T01:23:10.296Z,6.70
2018-05-27T01:24:10.286Z,6.80
2018-05-27T01:25:10.274Z,6.20
2018-05-27T01:26:10.268Z,6.40
2018-05-27T01:28:10.235Z,6.40
2018-05-27T01:29:10.243Z,5.90
2018-05-27T01:30:10.216Z,6.10
2018-05-27T01:31:10.207Z,6.40
2018-05-27T01:32:10.202Z,6.50
2018-05-27T01:33:10.331Z,5.90
2018-05-27T01:34:10.182Z,6.90
2018-05-27T01:35:10.268Z,6.70
2018-05-27T01:36:10.162Z,6.40
2018-05-27T01:37:10.147Z,6.00
2018-05-27T01:38:10.140Z,6.90
2018-05-27T01:39:10.175Z,6.60
2018-05-27T01:40:10.111Z,6.30
2018-05-27T01:41:10.105Z,6.40
2018-05-27T01:42:10.102Z,6.60
2018-05-27T01:44:10.072Z,6.20
2018-05-27T01:45:10.060Z,6.80
2018-05-27T01:46:10.053Z,6.10
2018-05-27T01:47:10.035Z,6.30
2018-05-27T01:48:10.038Z,6.20
2018-05-27T01:49:10.033Z,6.70
2018-05-27T01:50:10.011Z,6.50
2018-05-27T01:51:09.998Z,6.20
2018-05-27T01:52:09.987Z,6.50
2018-05-27T01:53:09.979Z,6.10
2018-05-27T01:54:09.971Z,6.30
2018-05-27T01:55:09.955Z,6.30
2018-05-27T01:56:09.939Z,6.50
2018-05-27T01:57:09.942Z,6.10
2018-05-27T01:58:09.929Z,5.90
2018-05-27T01:59:09.924Z,5.80
2018-05-27T02:00:09.908Z,6.20
2018-05-27T02:01:09.892Z,6.30
2018-05-27T02:02:09.880Z,6.40
2018-05-27T02:03:09.873Z,6.00
2018-05-27T02:04:09.860Z,6.20
2018-05-27T02:05:09.850Z,5.90
2018-05-27T02:06:09.837Z,6.40
2018-05-27T02:07:09.869Z,6.10
2018-05-27T02:08:09.823Z,6.00
2018-05-27T02:09:09.847Z,6.00
2018-05-27T02:10:09.801Z,6.30
2018-05-27T02:11:09.789Z,6.10
2018-05-27T02:12:09.770Z,6.10
2018-05-27T02:13:09.758Z,5.50
2018-05-27T02:14:09.755Z,6.70
2018-05-27T02:15:09.735Z,6.20
2018-05-27T02:16:09.724Z,6.20
2018-05-27T02:17:09.718Z,6.00
2018-05-27T02:18:09.709Z,6.20
2018-05-27T02:19:09.730Z,6.10
2018-05-27T02:20:09.679Z,6.40
2018-05-27T02:21:09.682Z,5.70
2018-05-27T02:22:09.665Z,6.10
2018-05-27T02:23:09.648Z,6.30
2018-05-27T02:24:09.648Z,6.20
2018-05-27T02:25:09.631Z,6.60
2018-05-27T02:26:09.622Z,6.10
2018-05-27T02:27:09.612Z,6.10
2018-05-27T02:28:09.603Z,6.10
2018-05-27T02:29:09.599Z,6.60
2018-05-27T02:30:09.579Z,5.70
2018-05-27T02:31:09.565Z,6.50
2018-05-27T02:32:09.565Z,6.80
2018-05-27T02:33:09.545Z,6.10
2018-05-27T02:34:09.539Z,6.40
2018-05-27T02:35:09.527Z,6.20
2018-05-27T02:36:09.508Z,6.90
2018-05-27T02:37:09.512Z,6.10
2018-05-27T02:38:09.494Z,6.20
2018-05-27T02:39:09.473Z,6.60
2018-05-27T02:40:09.474Z,6.10
2018-05-27T02:41:09.460Z,6.20
2018-05-27T02:42:09.448Z,6.30
2018-05-27T02:43:09.441Z,6.60
2018-05-27T02:44:09.425Z,6.20
2018-05-27T02:45:09.412Z,6.30
2018-05-27T02:46:09.457Z,6.60
2018-05-27T02:47:09.394Z,6.40
2018-05-27T02:48:09.377Z,6.70
2018-05-27T02:49:09.370Z,6.00
2018-05-27T02:50:09.358Z,6.20
2018-05-27T02:51:09.356Z,6.20
2018-05-27T02:52:09.342Z,6.10
2018-05-27T02:53:09.328Z,6.40
2018-05-27T02:54:09.334Z,6.80
2018-05-27T02:55:09.305Z,6.10
2018-05-27T02:56:09.294Z,6.40
2018-05-27T02:57:09.282Z,6.20
2018-05-27T02:58:09.273Z,6.40
2018-05-27T02:59:09.262Z,7.00
2018-05-27T03:00:09.253Z,6.60
2018-05-27T03:01:09.230Z,6.20
2018-05-27T03:02:09.232Z,6.50
2018-05-27T03:03:09.219Z,6.60
2018-05-27T03:04:09.207Z,6.90
2018-05-27T03:05:09.187Z,6.70
2018-05-27T03:06:09.181Z,7.00
2018-05-27T03:07:09.172Z,6.50
2018-05-27T03:08:09.162Z,6.70
2018-05-27T03:09:09.156Z,6.10
2018-05-27T03:10:09.135Z,6.60
2018-05-27T03:11:09.122Z,6.30
2018-05-27T03:12:09.116Z,6.20
2018-05-27T03:13:09.103Z,6.30
2018-05-27T03:14:09.095Z,6.10
2018-05-27T03:15:09.077Z,6.50
2018-05-27T03:16:09.064Z,6.70
2018-05-27T03:17:09.062Z,6.00
2018-05-27T03:18:09.045Z,6.60
2018-05-27T03:19:09.039Z,7.20
2018-05-27T03:20:09.033Z,7.20
2018-05-27T03:21:09.016Z,6.40
2018-05-27T03:22:08.994Z,6.00
2018-05-27T03:23:09.119Z,6.50
2018-05-27T03:24:08.977Z,6.50
2018-05-27T03:25:08.972Z,6.80
2018-05-27T03:26:08.956Z,6.30
2018-05-27T03:27:09.033Z,6.70
2018-05-27T03:28:08.932Z,6.20
2018-05-27T03:29:08.990Z,6.40
2018-05-27T03:30:08.915Z,6.40
2018-05-27T03:31:08.924Z,7.00
2018-05-27T03:32:08.891Z,6.40
2018-05-27T03:33:08.985Z,6.20
2018-05-27T03:34:08.868Z,6.40
2018-05-27T03:35:08.860Z,6.70
2018-05-27T03:36:08.837Z,6.60
2018-05-27T03:37:08.933Z,7.00
2018-05-27T03:38:08.821Z,6.20
2018-05-27T03:39:08.808Z,6.30
2018-05-27T03:40:08.805Z,7.20
2018-05-27T03:41:08.795Z,6.40
2018-05-27T03:42:08.777Z,6.90
2018-05-27T03:43:08.767Z,6.50
2018-05-27T03:44:08.754Z,6.20
2018-05-27T03:45:08.739Z,6.80
2018-05-27T03:46:08.734Z,7.20
2018-05-27T03:48:08.709Z,6.50
2018-05-27T03:49:08.696Z,6.90
2018-05-27T03:50:08.686Z,7.20
2018-05-27T03:51:08.668Z,6.20
2018-05-27T03:52:08.661Z,6.40
2018-05-27T03:53:08.652Z,6.90
2018-05-27T03:54:08.653Z,7.20
2018-05-27T03:55:08.624Z,6.40
2018-05-27T03:56:08.619Z,6.70
2018-05-27T03:57:08.600Z,7.10
2018-05-27T03:58:08.600Z,6.80
2018-05-27T03:59:08.589Z,7.50
2018-05-27T04:00:08.624Z,6.70
2018-05-27T04:01:08.566Z,6.70
2018-05-27T04:02:08.546Z,7.20
2018-05-27T04:03:08.549Z,6.50
2018-05-27T04:04:08.526Z,6.80
2018-05-27T04:05:08.513Z,7.60
2018-05-27T04:06:08.510Z,7.10
2018-05-27T04:07:08.500Z,6.90
2018-05-27T04:09:08.477Z,7.40
2018-05-27T04:10:08.465Z,7.10
2018-05-27T04:11:08.447Z,7.10
2018-05-27T04:12:08.440Z,7.50
2018-05-27T04:13:08.420Z,7.10
2018-05-27T04:14:08.404Z,7.40
2018-05-27T04:15:08.408Z,7.40
2018-05-27T04:16:08.392Z,7.40
2018-05-27T04:17:08.376Z,6.80
2018-05-27T04:18:08.366Z,6.90
2018-05-27T04:19:08.352Z,7.60
2018-05-27T04:20:08.340Z,7.50
2018-05-27T04:21:08.326Z,7.40
2018-05-27T04:22:08.313Z,7.00
2018-05-27T04:23:08.307Z,7.10
2018-05-27T04:24:08.303Z,6.90
2018-05-27T04:25:08.285Z,7.20
2018-05-27T04:26:08.275Z,7.40
2018-05-27T04:27:08.263Z,6.90
2018-05-27T04:28:08.246Z,7.40
2018-05-27T04:29:08.240Z,7.30
2018-05-27T04:30:08.229Z,7.10
2018-05-27T04:31:08.216Z,7.40
2018-05-27T04:32:08.212Z,7.20
2018-05-27T04:33:08.195Z,7.10
2018-05-27T04:34:08.179Z,6.90
2018-05-27T04:35:08.172Z,6.60
2018-05-27T04:36:08.166Z,7.40
2018-05-27T04:37:08.150Z,7.20
2018-05-27T04:38:08.139Z,7.50
2018-05-27T04:39:08.128Z,7.30
2018-05-27T04:40:08.115Z,7.10
2018-05-27T04:41:08.095Z,7.30
2018-05-27T04:42:08.098Z,7.20
2018-05-27T04:43:08.076Z,7.00
2018-05-27T04:44:08.069Z,7.90
2018-05-27T04:45:08.060Z,7.10
2018-05-27T04:46:08.048Z,7.00
2018-05-27T04:47:08.032Z,7.20
2018-05-27T04:48:08.035Z,7.30
2018-05-27T04:49:08.019Z,7.10
2018-05-27T04:50:07.996Z,6.80
2018-05-27T04:51:07.990Z,6.70
2018-05-27T04:52:07.978Z,6.50
2018-05-27T04:53:07.961Z,6.60
2018-05-27T04:54:08.003Z,7.00
2018-05-27T04:55:07.948Z,6.90
2018-05-27T04:56:07.931Z,7.20
2018-05-27T04:57:07.930Z,7.20
2018-05-27T04:58:07.906Z,6.80
2018-05-27T05:00:07.890Z,7.20
2018-05-27T05:01:07.869Z,7.40
2018-05-27T05:02:07.865Z,7.30
2018-05-27T05:03:07.856Z,6.90
2018-05-27T05:04:07.843Z,6.50
2018-05-27T05:05:07.826Z,7.70
2018-05-27T05:06:07.821Z,7.20
2018-05-27T05:07:07.811Z,6.70
2018-05-27T05:08:07.801Z,7.20
2018-05-27T05:09:07.789Z,7.10
2018-05-27T05:10:07.779Z,6.70
2018-05-27T05:11:07.766Z,7.10
2018-05-27T05:12:07.760Z,7.00
2018-05-27T05:13:07.743Z,7.20
2018-05-27T05:14:07.726Z,6.90
2018-05-27T05:15:07.723Z,7.30
2018-05-27T05:16:07.713Z,6.80
2018-05-27T05:17:07.698Z,7.30
2018-05-27T05:18:07.686Z,7.30
2018-05-27T05:19:07.678Z,7.70
2018-05-27T05:20:07.672Z,6.70
2018-05-27T05:21:07.656Z,6.80
2018-05-27T05:22:07.651Z,7.10
2018-05-27T05:23:07.626Z,7.00
2018-05-27T05:24:07.624Z,6.90
2018-05-27T05:26:07.598Z,6.90
2018-05-27T05:27:07.592Z,6.50
2018-05-27T05:28:07.581Z,7.10
2018-05-27T05:29:07.572Z,7.20
2018-05-27T05:30:07.562Z,6.80
2018-05-27T05:32:07.537Z,6.90
2018-05-27T05:33:07.542Z,7.10
2018-05-27T05:34:07.519Z,7.00
2018-05-27T05:35:07.608Z,7.10
2018-05-27T05:36:07.486Z,7.80
2018-05-27T05:37:07.581Z,7.00
2018-05-27T05:38:07.484Z,6.90
2018-05-27T05:39:07.458Z,6.90
2018-05-27T05:40:07.452Z,7.80
2018-05-27T05:41:07.441Z,7.50
2018-05-27T05:42:07.429Z,7.30
2018-05-27T05:43:07.430Z,7.20
2018-05-27T05:44:07.409Z,7.40
2018-05-27T05:45:07.397Z,7.30
2018-05-27T05:46:07.389Z,7.20
2018-05-27T05:47:07.381Z,6.90
2018-05-27T05:48:07.379Z,7.20
2018-05-27T05:49:07.364Z,7.20
2018-05-27T05:50:07.349Z,7.20
2018-05-27T05:51:07.343Z,7.20
2018-05-27T05:52:07.325Z,7.50
2018-05-27T05:53:07.310Z,7.50
2018-05-27T05:54:07.300Z,7.00
2018-05-27T05:55:07.287Z,7.30
2018-05-27T05:56:07.284Z,7.50
2018-05-27T05:57:07.284Z,7.80
2018-05-27T05:58:07.259Z,7.40
2018-05-27T05:59:07.259Z,7.80
2018-05-27T06:00:07.239Z,7.70
2018-05-27T06:01:07.250Z,7.40
2018-05-27T06:02:07.217Z,7.60
2018-05-27T06:03:07.217Z,7.30
2018-05-27T06:04:07.207Z,7.70
2018-05-27T06:05:07.192Z,7.20
2018-05-27T06:06:07.181Z,7.70
2018-05-27T06:07:07.173Z,7.80
2018-05-27T06:08:07.174Z,8.40
2018-05-27T06:09:07.147Z,7.50
2018-05-27T06:10:07.141Z,7.30
2018-05-27T06:11:07.133Z,7.70
2018-05-27T06:12:07.122Z,8.00
2018-05-27T06:13:07.112Z,8.20
2018-05-27T06:14:07.107Z,8.20
2018-05-27T06:15:07.090Z,8.20
2018-05-27T06:16:07.081Z,8.40
2018-05-27T06:17:07.079Z,8.10
2018-05-27T06:18:07.061Z,7.30
2018-05-27T06:19:07.054Z,8.10
2018-05-27T06:20:07.045Z,7.80
2018-05-27T06:21:07.033Z,7.80
2018-05-27T06:22:07.023Z,8.10
2018-05-27T06:23:07.018Z,8.40
2018-05-27T06:24:07.000Z,7.90
2018-05-27T06:25:06.990Z,7.70
2018-05-27T06:26:06.982Z,7.40
2018-05-27T06:27:06.972Z,8.20
2018-05-27T06:28:06.964Z,7.90
2018-05-27T06:29:06.952Z,8.50
2018-05-27T06:30:06.943Z,8.20
2018-05-27T06:31:06.930Z,8.60
2018-05-27T06:32:07.007Z,7.90
2018-05-27T06:33:06.914Z,7.70
2018-05-27T06:34:06.901Z,8.30
2018-05-27T06:35:06.888Z,8.50
2018-05-27T06:36:06.892Z,8.40
2018-05-27T06:37:06.885Z,8.00
2018-05-27T06:38:06.866Z,7.90
2018-05-27T06:39:06.860Z,8.30
2018-05-27T06:40:06.847Z,8.20
2018-05-27T06:41:06.833Z,8.00
2018-05-27T06:42:06.827Z,8.50
2018-05-27T06:43:06.823Z,8.10
2018-05-27T06:44:06.807Z,8.20
2018-05-27T06:45:06.796Z,8.30
2018-05-27T06:46:06.789Z,7.60
2018-05-27T06:47:06.780Z,8.30
2018-05-27T06:48:06.774Z,8.40
2018-05-27T06:49:06.754Z,8.30
2018-05-27T06:50:06.751Z,8.10
2018-05-27T06:51:06.741Z,8.00
2018-05-27T06:52:06.738Z,7.90
2018-05-27T06:53:06.720Z,7.50
2018-05-27T06:54:06.711Z,7.90
2018-05-27T06:55:06.699Z,8.20
2018-05-27T06:56:06.688Z,8.30
2018-05-27T06:57:06.681Z,8.00
2018-05-27T06:58:06.731Z,7.70
2018-05-27T06:59:06.660Z,7.50
2018-05-27T07:00:06.662Z,7.70
2018-05-27T07:01:06.647Z,7.30
2018-05-27T07:02:06.640Z,8.40
2018-05-27T07:03:06.631Z,7.80
2018-05-27T07:04:06.619Z,7.40
2018-05-27T07:05:06.611Z,8.40
2018-05-27T07:06:06.607Z,8.20
2018-05-27T07:07:06.589Z,7.80
2018-05-27T07:08:06.583Z,7.90
2018-05-27T07:10:06.569Z,7.40
2018-05-27T07:11:06.562Z,7.90
2018-05-27T07:12:06.547Z,7.50
2018-05-27T07:13:06.538Z,7.20
2018-05-27T07:14:06.531Z,7.10
2018-05-27T07:15:06.518Z,7.90
2018-05-27T07:16:06.512Z,7.50
2018-05-27T07:17:06.645Z,7.70
2018-05-27T07:18:06.502Z,8.00
2018-05-27T07:19:06.551Z,7.90
2018-05-27T07:20:06.477Z,8.40
2018-05-27T07:21:06.476Z,7.50
2018-05-27T07:22:06.457Z,8.00
2018-05-27T07:23:06.560Z,8.10
2018-05-27T07:24:06.449Z,7.50
2018-05-27T07:25:06.440Z,7.40
2018-05-27T07:26:06.432Z,8.20
2018-05-27T07:27:06.419Z,8.10
2018-05-27T07:28:06.432Z,7.50
2018-05-27T07:29:06.397Z,7.80
2018-05-27T07:30:06.390Z,7.70
2018-05-27T07:31:06.383Z,7.40
2018-05-27T07:32:06.378Z,7.60
2018-05-27T07:33:06.367Z,7.40
2018-05-27T07:34:06.357Z,7.70
2018-05-27T07:35:06.352Z,6.80
2018-05-27T07:36:06.342Z,7.60
2018-05-27T07:37:06.332Z,7.60
2018-05-27T07:38:06.326Z,7.60
2018-05-27T07:40:06.633Z,8.00
2018-05-27T07:41:06.299Z,7.50
2018-05-27T07:42:06.290Z,7.90
2018-05-27T07:43:06.284Z,8.30
2018-05-27T07:44:06.277Z,7.50
2018-05-27T07:45:06.270Z,7.70
2018-05-27T07:46:06.263Z,8.00
2018-05-27T07:47:06.248Z,7.70
2018-05-27T07:48:06.246Z,7.90
2018-05-27T07:49:06.245Z,8.00
2018-05-27T07:50:06.230Z,8.20
2018-05-27T07:51:06.223Z,8.40
2018-05-27T07:52:06.210Z,8.20
2018-05-27T07:53:06.204Z,7.50
2018-05-27T07:54:06.204Z,7.60
2018-05-27T07:55:06.188Z,7.60
2018-05-27T07:56:06.181Z,7.20
2018-05-27T07:57:06.176Z,7.60
2018-05-27T07:58:06.217Z,7.30
2018-05-27T07:59:06.162Z,7.80
2018-05-27T08:00:06.201Z,7.80
2018-05-27T08:01:06.143Z,7.30
2018-05-27T08:02:06.191Z,6.60
2018-05-27T08:03:06.133Z,7.20
2018-05-27T08:04:06.117Z,7.20
2018-05-27T08:05:06.108Z,7.10
2018-05-27T08:06:06.106Z,7.10
2018-05-27T08:07:06.110Z,6.90
2018-05-27T08:08:06.092Z,7.10
2018-05-27T08:09:06.079Z,7.00
2018-05-27T08:10:06.072Z,7.00
2018-05-27T08:11:06.070Z,6.70
2018-05-27T08:12:06.063Z,7.10
2018-05-27T08:13:06.052Z,6.80
2018-05-27T08:14:06.050Z,6.80
2018-05-27T08:15:06.044Z,7.30
2018-05-27T08:16:06.028Z,6.50
2018-05-27T08:17:06.031Z,6.40
2018-05-27T08:18:06.019Z,7.40
2018-05-27T08:19:06.009Z,6.60
2018-05-27T08:20:06.091Z,6.80
2018-05-27T08:21:06.003Z,7.10
2018-05-27T08:22:05.993Z,6.90
2018-05-27T08:23:05.987Z,6.20
2018-05-27T08:24:05.984Z,16.50
2018-05-27T08:25:05.991Z,7.80
2018-05-27T08:26:05.970Z,7.40
2018-05-27T08:27:05.953Z,7.20
2018-05-27T08:28:05.961Z,8.70
2018-05-27T08:29:05.948Z,6.10
2018-05-27T08:30:05.942Z,5.70
2018-05-27T08:31:05.942Z,5.70
2018-05-27T08:32:05.936Z,6.20
2018-05-27T08:33:05.924Z,5.60
2018-05-27T08:34:05.918Z,6.00
2018-05-27T08:35:05.976Z,5.80
2018-05-27T08:36:05.910Z,6.20
2018-05-27T08:37:05.910Z,6.20
2018-05-27T08:38:05.899Z,7.00
2018-05-27T08:39:05.896Z,5.50
2018-05-27T08:40:05.896Z,5.50
2018-05-27T08:41:05.889Z,6.30
2018-05-27T08:42:05.887Z,5.70
2018-05-27T08:43:05.889Z,5.70
2018-05-27T08:44:05.886Z,5.20
2018-05-27T08:45:05.878Z,5.50
2018-05-27T08:46:05.911Z,5.40
2018-05-27T08:47:05.881Z,5.20
2018-05-27T08:48:05.875Z,5.30
2018-05-27T08:49:05.882Z,5.30
2018-05-27T08:50:05.866Z,5.30
2018-05-27T08:51:05.873Z,6.10
2018-05-27T08:52:05.872Z,5.30
2018-05-27T08:53:05.873Z,5.00
2018-05-27T08:54:05.869Z,5.10
2018-05-27T08:55:05.869Z,5.20
2018-05-27T08:56:05.870Z,5.60
2018-05-27T08:57:05.866Z,5.60
2018-05-27T08:58:05.871Z,5.40
2018-05-27T08:59:05.873Z,6.00
2018-05-27T09:00:05.869Z,5.50
2018-05-27T09:01:05.869Z,5.20
2018-05-27T09:02:05.872Z,4.90
2018-05-27T09:03:05.877Z,5.10
2018-05-27T09:04:05.872Z,5.40
2018-05-27T09:05:05.881Z,5.20
2018-05-27T09:06:05.878Z,4.90
2018-05-27T09:07:05.882Z,5.60
2018-05-27T09:08:05.886Z,5.80
2018-05-27T09:09:05.892Z,5.70
2018-05-27T09:10:05.886Z,5.30
2018-05-27T09:11:05.894Z,5.70
2018-05-27T09:12:05.897Z,6.20
2018-05-27T09:13:05.896Z,6.50
2018-05-27T09:14:05.899Z,5.80
2018-05-27T09:15:05.918Z,5.50
2018-05-27T09:16:05.915Z,5.80
2018-05-27T09:17:05.911Z,5.90
2018-05-27T09:18:05.917Z,7.10
2018-05-27T09:19:05.908Z,7.70
2018-05-27T09:20:05.909Z,5.80
2018-05-27T09:21:05.928Z,5.10
2018-05-27T09:22:05.922Z,5.20
2018-05-27T09:23:05.921Z,5.50
2018-05-27T09:24:05.927Z,5.00
2018-05-27T09:25:05.953Z,5.10
2018-05-27T09:26:05.928Z,6.10
2018-05-27T09:27:05.935Z,5.40
2018-05-27T09:28:05.936Z,4.80
2018-05-27T09:29:05.941Z,5.40
2018-05-27T09:30:05.943Z,6.00
2018-05-27T09:31:05.937Z,5.40
2018-05-27T09:32:05.948Z,5.50
2018-05-27T09:33:05.948Z,5.10
2018-05-27T09:34:05.948Z,5.10
2018-05-27T09:35:05.948Z,5.20
2018-05-27T09:36:05.962Z,5.20
2018-05-27T09:37:05.962Z,5.50
2018-05-27T09:38:05.960Z,5.60
2018-05-27T09:39:05.961Z,6.10
2018-05-27T09:40:05.960Z,6.30
2018-05-27T09:41:05.958Z,6.00
2018-05-27T09:42:05.970Z,5.70
2018-05-27T09:43:05.982Z,5.40
2018-05-27T09:44:05.968Z,5.70
2018-05-27T09:45:06.002Z,5.40
2018-05-27T09:46:05.967Z,6.10
2018-05-27T09:47:05.981Z,6.40
2018-05-27T09:48:05.973Z,5.10
2018-05-27T09:50:05.987Z,5.70
2018-05-27T09:51:06.021Z,5.20
2018-05-27T09:52:06.032Z,5.70
2018-05-27T09:53:05.980Z,5.00
2018-05-27T09:54:05.971Z,5.10
2018-05-27T09:55:05.976Z,6.00
2018-05-27T09:56:06.019Z,5.50
2018-05-27T09:57:05.980Z,5.70
2018-05-27T09:58:05.993Z,5.80
2018-05-27T10:00:05.977Z,5.30
2018-05-27T10:01:05.980Z,5.40
2018-05-27T10:02:05.980Z,5.50
2018-05-27T10:03:05.986Z,5.30
2018-05-27T10:04:05.981Z,5.50
2018-05-27T10:05:05.978Z,6.60
2018-05-27T10:06:05.990Z,6.00
2018-05-27T10:07:05.988Z,5.60
2018-05-27T10:08:05.980Z,6.20
2018-05-27T10:09:05.977Z,6.10
2018-05-27T10:10:05.973Z,6.10
2018-05-27T10:11:05.968Z,5.60
2018-05-27T10:12:05.991Z,6.20
2018-05-27T10:13:05.977Z,6.00
2018-05-27T10:14:05.971Z,5.50
2018-05-27T10:15:05.978Z,6.20
2018-05-27T10:16:05.974Z,6.70
2018-05-27T10:17:05.967Z,6.20
2018-05-27T10:18:05.967Z,6.10
2018-05-27T10:19:06.113Z,6.40
2018-05-27T10:20:05.967Z,5.70
2018-05-27T10:21:05.966Z,6.80
2018-05-27T10:22:05.968Z,7.00
2018-05-27T10:23:05.958Z,6.70
2018-05-27T10:24:05.981Z,6.50
2018-05-27T10:25:05.958Z,6.00
2018-05-27T10:26:06.105Z,6.40
2018-05-27T10:27:05.966Z,8.00
2018-05-27T10:28:05.949Z,7.10
2018-05-27T10:29:05.956Z,6.80
2018-05-27T10:30:05.957Z,8.00
2018-05-27T10:31:05.945Z,6.70
2018-05-27T10:32:05.950Z,6.70
2018-05-27T10:33:05.943Z,8.50
2018-05-27T10:34:05.937Z,7.30
2018-05-27T10:35:05.936Z,6.10
2018-05-27T10:36:05.936Z,7.20
2018-05-27T10:37:05.937Z,6.70
2018-05-27T10:38:05.932Z,6.60
2018-05-27T10:39:05.929Z,6.80
2018-05-27T10:40:05.928Z,6.80
2018-05-27T10:41:05.922Z,6.50
2018-05-27T10:42:05.929Z,6.40
2018-05-27T10:43:05.922Z,6.40
2018-05-27T10:44:05.957Z,6.90
2018-05-27T10:45:05.913Z,6.40
2018-05-27T10:46:05.912Z,6.40
2018-05-27T10:47:05.906Z,6.50
2018-05-27T10:48:05.902Z,6.20
2018-05-27T10:49:05.903Z,6.30
2018-05-27T10:50:05.942Z,6.20
2018-05-27T10:51:05.890Z,7.30
2018-05-27T10:52:05.886Z,6.70
2018-05-27T10:53:05.876Z,6.50
2018-05-27T10:54:05.879Z,6.90
2018-05-27T10:55:05.877Z,6.20
2018-05-27T10:56:05.873Z,6.50
2018-05-27T10:57:05.880Z,6.30
2018-05-27T10:58:05.867Z,6.10
2018-05-27T10:59:05.856Z,7.60
2018-05-27T11:00:05.858Z,8.90
2018-05-27T11:02:05.845Z,6.50
2018-05-27T11:03:05.854Z,7.50
2018-05-27T11:04:05.851Z,7.00
2018-05-27T11:05:05.838Z,6.80
2018-05-27T11:06:05.835Z,7.00
2018-05-27T11:07:05.877Z,6.40
2018-05-27T11:08:05.829Z,6.20
2018-05-27T11:09:05.829Z,7.20
2018-05-27T11:10:05.830Z,6.60
2018-05-27T11:11:05.831Z,6.50
2018-05-27T11:13:05.818Z,6.40
2018-05-27T11:14:05.810Z,6.80
2018-05-27T11:15:05.839Z,7.00
2018-05-27T11:16:05.810Z,6.90
2018-05-27T11:17:05.949Z,6.40
2018-05-27T11:18:05.798Z,7.40
2018-05-27T11:19:05.794Z,6.60
2018-05-27T11:20:05.793Z,6.80
2018-05-27T11:21:05.787Z,7.00
2018-05-27T11:22:05.784Z,7.30
2018-05-27T11:23:05.781Z,6.90
2018-05-27T11:24:05.781Z,6.30
2018-05-27T11:25:05.781Z,7.00
2018-05-27T11:26:05.780Z,6.90
2018-05-27T11:27:05.772Z,7.40
2018-05-27T11:28:05.772Z,6.90
2018-05-27T11:29:05.763Z,7.20
2018-05-27T11:30:05.765Z,6.90
2018-05-27T11:31:05.762Z,7.10
2018-05-27T11:32:05.765Z,6.50
2018-05-27T11:33:05.761Z,7.20
2018-05-27T11:34:05.748Z,7.40
2018-05-27T11:35:05.762Z,6.60
2018-05-27T11:36:05.744Z,6.90
2018-05-27T11:37:05.752Z,6.80
2018-05-27T11:38:05.742Z,7.00
2018-05-27T11:39:05.730Z,6.60
2018-05-27T11:40:05.733Z,6.80
2018-05-27T11:41:05.726Z,7.10
2018-05-27T11:42:05.772Z,6.90
2018-05-27T11:43:05.718Z,7.20
2018-05-27T11:44:05.734Z,7.40
2018-05-27T11:45:05.714Z,6.80
2018-05-27T11:46:05.771Z,7.30
2018-05-27T11:48:05.862Z,7.00
2018-05-27T11:49:05.708Z,7.00
2018-05-27T11:50:05.704Z,6.90
2018-05-27T11:51:05.700Z,7.20
2018-05-27T11:52:05.692Z,7.30
2018-05-27T11:53:05.696Z,7.60
2018-05-27T11:54:05.688Z,7.20
2018-05-27T11:55:05.691Z,7.00
2018-05-27T11:56:05.685Z,6.90
2018-05-27T11:57:05.681Z,7.00
2018-05-27T11:58:05.675Z,7.10
2018-05-27T11:59:05.675Z,6.80
2018-05-27T12:00:05.672Z,6.50
2018-05-27T12:01:05.673Z,9.70
2018-05-27T12:02:05.776Z,8.70
2018-05-27T12:03:05.661Z,7.90
2018-05-27T12:04:05.672Z,7.10
2018-05-27T12:06:05.646Z,7.30
2018-05-27T12:07:05.650Z,6.60
2018-05-27T12:08:05.643Z,7.00
2018-05-27T12:09:05.772Z,6.40
2018-05-27T12:10:05.637Z,6.80
2018-05-27T12:11:05.745Z,7.20
2018-05-27T12:12:05.638Z,7.40
2018-05-27T12:13:05.630Z,6.10
2018-05-27T12:14:05.638Z,6.60
2018-05-27T12:15:05.648Z,6.70
2018-05-27T12:16:05.627Z,6.40
2018-05-27T12:17:05.672Z,6.40
2018-05-27T12:18:05.618Z,6.50
2018-05-27T12:19:05.616Z,6.80
2018-05-27T12:20:05.611Z,6.70
2018-05-27T12:21:05.618Z,6.60
2018-05-27T12:22:05.646Z,6.90
2018-05-27T12:25:05.595Z,6.90
2018-05-27T12:26:05.591Z,7.10
2018-05-27T12:27:05.590Z,6.60
2018-05-27T12:28:05.589Z,6.70
2018-05-27T12:29:05.583Z,6.60
2018-05-27T12:30:05.582Z,7.00
2018-05-27T12:31:05.586Z,7.50
2018-05-27T12:32:05.579Z,6.80
2018-05-27T12:33:05.566Z,7.10
2018-05-27T12:34:05.565Z,6.90
2018-05-27T12:35:05.561Z,7.10
2018-05-27T12:36:05.558Z,7.30
2018-05-27T12:37:05.557Z,6.60
2018-05-27T12:38:05.548Z,6.90
2018-05-27T12:39:05.548Z,6.40
2018-05-27T12:40:05.550Z,6.50
2018-05-27T12:41:05.545Z,6.70
2018-05-27T12:42:05.539Z,6.70
2018-05-27T12:43:05.530Z,6.90
2018-05-27T12:44:05.533Z,6.90
2018-05-27T12:45:05.522Z,6.40
2018-05-27T12:46:05.524Z,7.30
2018-05-27T12:47:05.519Z,7.90
2018-05-27T12:48:05.522Z,7.60
2018-05-27T12:49:05.506Z,7.20
2018-05-27T12:50:05.535Z,7.50
2018-05-27T12:51:05.520Z,7.30
2018-05-27T12:52:05.498Z,7.50
2018-05-27T12:53:05.490Z,6.90
2018-05-27T12:54:05.490Z,7.40
2018-05-27T12:55:05.492Z,7.50
2018-05-27T12:56:05.498Z,7.40
2018-05-27T12:57:05.482Z,7.50
2018-05-27T12:58:05.476Z,7.00
2018-05-27T12:59:05.481Z,6.50
2018-05-27T13:00:05.468Z,7.20
2018-05-27T13:01:05.463Z,7.60
2018-05-27T13:02:05.463Z,7.30
2018-05-27T13:03:05.459Z,7.10
2018-05-27T13:04:05.448Z,7.00
2018-05-27T13:05:05.468Z,6.90
2018-05-27T13:06:05.447Z,7.20
2018-05-27T13:07:05.439Z,7.10
2018-05-27T13:08:05.447Z,6.60
2018-05-27T13:09:05.442Z,6.70
2018-05-27T13:10:05.435Z,6.80
2018-05-27T13:11:05.431Z,6.80
2018-05-27T13:12:05.436Z,6.70
2018-05-27T13:13:05.414Z,6.80
2018-05-27T13:14:05.415Z,6.80
2018-05-27T13:15:05.414Z,6.80
2018-05-27T13:16:05.407Z,7.00
2018-05-27T13:17:05.411Z,7.00
2018-05-27T13:18:05.404Z,7.00
2018-05-27T13:19:05.398Z,7.40
2018-05-27T13:20:05.413Z,7.20
2018-05-27T13:21:05.395Z,6.90
2018-05-27T13:22:05.389Z,6.60
2018-05-27T13:23:05.386Z,6.40
2018-05-27T13:24:05.382Z,6.50
2018-05-27T13:25:05.384Z,6.60
2018-05-27T13:26:05.380Z,7.00
2018-05-27T13:27:05.376Z,6.80
2018-05-27T13:28:05.369Z,6.40
2018-05-27T13:29:05.364Z,6.50
2018-05-27T13:30:05.427Z,6.10
2018-05-27T13:31:05.358Z,7.80
2018-05-27T13:32:05.366Z,6.50
2018-05-27T13:33:05.359Z,6.50
2018-05-27T13:34:05.344Z,6.70
2018-05-27T13:35:05.345Z,6.80
2018-05-27T13:36:05.349Z,6.60
2018-05-27T13:37:05.366Z,6.50
2018-05-27T13:38:05.339Z,6.30